sensor_id;sensor_type;location;lat;lon;timestamp;pressure;altitude;pressure_sealevel;temperature;humidity
13068;BME280;6600;51.362;6.686;2023-09-18T00:00:20;100258.63;;;20.32;100.00
13068;BME280;6600;51.362;6.686;2023-09-18T00:02:49;100257.81;;;20.31;100.00
13068;BME280;6600;51.362;6.686;2023-09-18T00:05:15;100250.50;;;20.27;100.00
13068;BME280;6600;51.362;6.686;2023-09-18T00:07:44;100259.72;;;20.31;100.00
13068;BME280;6600;51.362;6.686;2023-09-18T00:10:10;100248.56;;;20.32;100.00
13068;BME280;6600;51.362;6.686;2023-09-18T00:12:36;100250.19;;;20.33;100.00
13068;BME280;6600;51.362;6.686;2023-09-18T00:15:02;100248.56;;;20.32;100.00
13068;BME280;6600;51.362;6.686;2023-09-18T00:17:28;100246.88;;;20.36;100.00
13068;BME280;6600;51.362;6.686;2023-09-18T00:19:53;100238.97;;;20.35;100.00
13068;BME280;6600;51.362;6.686;2023-09-18T00:22:19;100233.84;;;20.33;100.00
13068;BME280;6600;51.362;6.686;2023-09-18T00:24:44;100230.31;;;20.33;100.00
13068;BME280;6600;51.362;6.686;2023-09-18T00:27:10;100230.59;;;20.31;100.00
13068;BME280;6600;51.362;6.686;2023-09-18T00:29:36;100217.81;;;20.32;100.00
13068;BME280;6600;51.362;6.686;2023-09-18T00:32:02;100215.91;;;20.32;100.00
13068;BME280;6600;51.362;6.686;2023-09-18T00:34:28;100215.63;;;20.34;100.00
13068;BME280;6600;51.362;6.686;2023-09-18T00:36:53;100201.19;;;20.33;100.00
13068;BME280;6600;51.362;6.686;2023-09-18T00:39:19;100190.91;;;20.30;100.00
13068;BME280;6600;51.362;6.686;2023-09-18T00:41:45;100190.38;;;20.28;100.00
13068;BME280;6600;51.362;6.686;2023-09-18T00:44:14;100184.41;;;20.26;100.00
13068;BME280;6600;51.362;6.686;2023-09-18T00:46:39;100199.09;;;20.25;100.00
13068;BME280;6600;51.362;6.686;2023-09-18T00:49:05;100195.88;;;20.23;100.00
13068;BME280;6600;51.362;6.686;2023-09-18T00:51:30;100187.16;;;20.21;100.00
13068;BME280;6600;51.362;6.686;2023-09-18T00:53:56;100178.19;;;20.21;100.00
13068;BME280;6600;51.362;6.686;2023-09-18T00:56:21;100171.97;;;20.20;100.00
13068;BME280;6600;51.362;6.686;2023-09-18T00:58:47;100176.88;;;20.18;100.00
13068;BME280;6600;51.362;6.686;2023-09-18T01:01:12;100170.09;;;20.15;100.00
13068;BME280;6600;51.362;6.686;2023-09-18T01:03:39;100160.63;;;20.13;100.00
13068;BME280;6600;51.362;6.686;2023-09-18T01:06:05;100160.31;;;20.14;100.00
13068;BME280;6600;51.362;6.686;2023-09-18T01:08:30;100158.69;;;20.13;100.00
13068;BME280;6600;51.362;6.686;2023-09-18T01:13:48;100156.28;;;20.12;100.00
13068;BME280;6600;51.362;6.686;2023-09-18T01:16:27;100155.75;;;20.10;100.00
13068;BME280;6600;51.362;6.686;2023-09-18T01:18:54;100152.00;;;20.06;100.00
13068;BME280;6600;51.362;6.686;2023-09-18T01:21:19;100154.75;;;20.06;100.00
13068;BME280;6600;51.362;6.686;2023-09-18T01:23:46;100143.09;;;20.00;100.00
13068;BME280;6600;51.362;6.686;2023-09-18T01:26:11;100150.16;;;20.01;100.00
13068;BME280;6600;51.362;6.686;2023-09-18T01:28:36;100143.91;;;20.01;100.00
13068;BME280;6600;51.362;6.686;2023-09-18T01:31:02;100146.13;;;19.99;100.00
13068;BME280;6600;51.362;6.686;2023-09-18T01:33:28;100142.28;;;20.00;100.00
13068;BME280;6600;51.362;6.686;2023-09-18T01:35:55;100140.69;;;19.99;100.00
13068;BME280;6600;51.362;6.686;2023-09-18T01:38:23;100135.25;;;19.99;100.00
13068;BME280;6600;51.362;6.686;2023-09-18T01:40:49;100132.00;;;19.97;100.00
13068;BME280;6600;51.362;6.686;2023-09-18T01:43:15;100132.00;;;19.97;100.00
13068;BME280;6600;51.362;6.686;2023-09-18T01:45:41;100123.84;;;19.97;100.00
13068;BME280;6600;51.362;6.686;2023-09-18T01:48:07;100135.84;;;19.96;100.00
13068;BME280;6600;51.362;6.686;2023-09-18T01:50:33;100121.69;;;19.94;100.00
13068;BME280;6600;51.362;6.686;2023-09-18T01:52:59;100123.31;;;19.95;100.00
13068;BME280;6600;51.362;6.686;2023-09-18T01:55:24;100116.25;;;19.94;100.00
13068;BME280;6600;51.362;6.686;2023-09-18T01:57:49;100112.44;;;19.95;100.00
13068;BME280;6600;51.362;6.686;2023-09-18T02:00:15;100112.97;;;19.97;100.00
13068;BME280;6600;51.362;6.686;2023-09-18T02:02:40;100114.59;;;19.98;100.00
13068;BME280;6600;51.362;6.686;2023-09-18T02:05:06;100103.69;;;19.98;100.00
13068;BME280;6600;51.362;6.686;2023-09-18T02:07:31;100100.41;;;20.01;100.00
13068;BME280;6600;51.362;6.686;2023-09-18T02:09:57;100102.03;;;20.02;100.00
13068;BME280;6600;51.362;6.686;2023-09-18T02:12:22;100097.41;;;20.02;100.00
13068;BME280;6600;51.362;6.686;2023-09-18T02:14:47;100090.56;;;20.05;100.00
13068;BME280;6600;51.362;6.686;2023-09-18T02:17:13;100099.22;;;20.07;100.00
13068;BME280;6600;51.362;6.686;2023-09-18T02:19:38;100086.75;;;20.06;100.00
13068;BME280;6600;51.362;6.686;2023-09-18T02:22:04;100086.75;;;20.06;100.00
13068;BME280;6600;51.362;6.686;2023-09-18T02:24:29;100078.59;;;20.06;100.00
13068;BME280;6600;51.362;6.686;2023-09-18T02:26:54;100076.97;;;20.05;100.00
13068;BME280;6600;51.362;6.686;2023-09-18T02:29:20;100065.84;;;20.01;100.00
13068;BME280;6600;51.362;6.686;2023-09-18T02:31:45;100066.94;;;20.00;100.00
13068;BME280;6600;51.362;6.686;2023-09-18T02:34:11;100055.84;;;19.97;100.00
13068;BME280;6600;51.362;6.686;2023-09-18T02:36:36;100047.69;;;19.97;100.00
13068;BME280;6600;51.362;6.686;2023-09-18T02:39:02;100041.66;;;20.00;100.00
13068;BME280;6600;51.362;6.686;2023-09-18T02:41:28;100035.13;;;20.01;100.00
13068;BME280;6600;51.362;6.686;2023-09-18T02:43:53;100033.50;;;20.00;100.00
13068;BME280;6600;51.362;6.686;2023-09-18T02:46:18;100013.38;;;20.01;100.00
13068;BME280;6600;51.362;6.686;2023-09-18T02:48:44;100021.03;;;19.99;100.00
13068;BME280;6600;51.362;6.686;2023-09-18T02:51:09;100044.22;;;20.10;100.00
13068;BME280;6600;51.362;6.686;2023-09-18T02:53:35;100045.84;;;20.11;100.00
13068;BME280;6600;51.362;6.686;2023-09-18T02:56:00;100025.94;;;20.15;100.00
13068;BME280;6600;51.362;6.686;2023-09-18T02:58:26;100015.28;;;20.19;100.00
13068;BME280;6600;51.362;6.686;2023-09-18T03:00:55;100008.66;;;20.25;100.00
13068;BME280;6600;51.362;6.686;2023-09-18T03:03:20;99995.38;;;20.24;100.00
13068;BME280;6600;51.362;6.686;2023-09-18T03:05:46;99995.88;;;20.44;100.00
13068;BME280;6600;51.362;6.686;2023-09-18T03:08:13;99985.38;;;20.51;100.00
13068;BME280;6600;51.362;6.686;2023-09-18T03:10:40;99992.09;;;20.73;100.00
13068;BME280;6600;51.362;6.686;2023-09-18T03:13:06;99988.47;;;20.91;100.00
13068;BME280;6600;51.362;6.686;2023-09-18T03:15:32;99974.06;;;21.04;100.00
13068;BME280;6600;51.362;6.686;2023-09-18T03:17:58;99972.78;;;21.15;100.00
13068;BME280;6600;51.362;6.686;2023-09-18T03:20:26;99983.47;;;21.25;100.00
13068;BME280;6600;51.362;6.686;2023-09-18T03:22:52;99969.97;;;21.34;100.00
13068;BME280;6600;51.362;6.686;2023-09-18T03:25:17;99967.72;;;21.36;100.00
13068;BME280;6600;51.362;6.686;2023-09-18T03:27:43;99959.66;;;21.44;100.00
13068;BME280;6600;51.362;6.686;2023-09-18T03:30:08;99952.69;;;21.38;100.00
13068;BME280;6600;51.362;6.686;2023-09-18T03:32:34;99961.25;;;21.45;100.00
13068;BME280;6600;51.362;6.686;2023-09-18T03:35:01;99963.69;;;21.47;100.00
13068;BME280;6600;51.362;6.686;2023-09-18T03:37:26;99959.03;;;21.47;100.00
13068;BME280;6600;51.362;6.686;2023-09-18T03:39:51;99949.13;;;21.51;100.00
13068;BME280;6600;51.362;6.686;2023-09-18T03:42:17;99942.75;;;21.56;100.00
13068;BME280;6600;51.362;6.686;2023-09-18T03:44:42;99947.91;;;21.57;100.00
13068;BME280;6600;51.362;6.686;2023-09-18T03:47:07;99928.03;;;21.57;100.00
13068;BME280;6600;51.362;6.686;2023-09-18T03:49:32;99938.13;;;21.56;100.00
13068;BME280;6600;51.362;6.686;2023-09-18T03:51:58;99930.41;;;21.58;100.00
13068;BME280;6600;51.362;6.686;2023-09-18T03:54:23;99920.66;;;21.57;100.00
13068;BME280;6600;51.362;6.686;2023-09-18T03:56:48;99894.78;;;21.55;100.00
13068;BME280;6600;51.362;6.686;2023-09-18T03:59:14;99883.88;;;21.55;100.00
13068;BME280;6600;51.362;6.686;2023-09-18T04:01:39;99878.25;;;21.51;100.00
13068;BME280;6600;51.362;6.686;2023-09-18T04:04:05;99893.50;;;21.52;100.00
13068;BME280;6600;51.362;6.686;2023-09-18T04:06:43;99927.69;;;21.58;100.00
13068;BME280;6600;51.362;6.686;2023-09-18T04:09:09;99925.81;;;21.45;100.00
13068;BME280;6600;51.362;6.686;2023-09-18T04:11:35;99928.34;;;21.42;100.00
13068;BME280;6600;51.362;6.686;2023-09-18T04:14:01;99933.00;;;21.41;100.00
13068;BME280;6600;51.362;6.686;2023-09-18T04:16:27;99937.25;;;21.47;100.00
13068;BME280;6600;51.362;6.686;2023-09-18T04:18:56;99939.22;;;21.55;100.00
13068;BME280;6600;51.362;6.686;2023-09-18T04:21:22;99944.28;;;21.48;100.00
13068;BME280;6600;51.362;6.686;2023-09-18T04:23:47;99948.13;;;21.47;100.00
13068;BME280;6600;51.362;6.686;2023-09-18T04:26:13;99953.69;;;21.42;100.00
13068;BME280;6600;51.362;6.686;2023-09-18T04:28:39;99951.47;;;21.44;100.00
13068;BME280;6600;51.362;6.686;2023-09-18T04:31:04;99964.91;;;21.41;100.00
13068;BME280;6600;51.362;6.686;2023-09-18T04:33:30;99973.38;;;21.39;100.00
13068;BME280;6600;51.362;6.686;2023-09-18T04:35:55;99964.53;;;21.34;100.00
13068;BME280;6600;51.362;6.686;2023-09-18T04:38:20;99961.47;;;21.35;100.00
13068;BME280;6600;51.362;6.686;2023-09-18T04:40:46;99966.31;;;21.38;100.00
13068;BME280;6600;51.362;6.686;2023-09-18T04:43:11;99967.94;;;21.39;100.00
13068;BME280;6600;51.362;6.686;2023-09-18T04:45:36;99966.22;;;21.43;100.00
13068;BME280;6600;51.362;6.686;2023-09-18T04:48:02;99961.88;;;21.42;100.00
13068;BME280;6600;51.362;6.686;2023-09-18T04:50:28;99953.19;;;21.40;100.00
13068;BME280;6600;51.362;6.686;2023-09-18T04:52:53;99950.66;;;21.44;100.00
13068;BME280;6600;51.362;6.686;2023-09-18T04:55:21;99941.06;;;21.46;100.00
13068;BME280;6600;51.362;6.686;2023-09-18T04:57:46;99931.78;;;21.47;100.00
13068;BME280;6600;51.362;6.686;2023-09-18T05:00:12;99951.56;;;21.39;100.00
13068;BME280;6600;51.362;6.686;2023-09-18T05:02:39;99956.81;;;21.36;100.00
13068;BME280;6600;51.362;6.686;2023-09-18T05:05:05;99952.19;;;21.36;100.00
13068;BME280;6600;51.362;6.686;2023-09-18T05:07:30;99947.97;;;21.30;100.00
13068;BME280;6600;51.362;6.686;2023-09-18T05:09:57;99944.09;;;21.31;100.00
13068;BME280;6600;51.362;6.686;2023-09-18T05:12:23;99946.97;;;21.26;100.00
13068;BME280;6600;51.362;6.686;2023-09-18T05:14:48;99940.38;;;21.13;100.00
13068;BME280;6600;51.362;6.686;2023-09-18T05:17:15;99941.19;;;21.14;100.00
13068;BME280;6600;51.362;6.686;2023-09-18T05:19:41;99946.75;;;21.09;100.00
13068;BME280;6600;51.362;6.686;2023-09-18T05:22:08;99947.03;;;21.07;100.00
13068;BME280;6600;51.362;6.686;2023-09-18T05:24:35;99967.03;;;21.03;100.00
13068;BME280;6600;51.362;6.686;2023-09-18T05:27:00;99956.00;;;21.08;100.00
13068;BME280;6600;51.362;6.686;2023-09-18T05:29:26;99967.72;;;21.08;100.00
13068;BME280;6600;51.362;6.686;2023-09-18T05:31:51;99974.59;;;21.06;100.00
13068;BME280;6600;51.362;6.686;2023-09-18T05:34:17;99960.66;;;21.07;100.00
13068;BME280;6600;51.362;6.686;2023-09-18T05:36:42;99944.81;;;21.09;100.00
13068;BME280;6600;51.362;6.686;2023-09-18T05:39:07;99948.94;;;21.07;100.00
13068;BME280;6600;51.362;6.686;2023-09-18T05:41:37;99947.44;;;21.01;100.00
13068;BME280;6600;51.362;6.686;2023-09-18T05:44:03;99956.13;;;21.03;100.00
13068;BME280;6600;51.362;6.686;2023-09-18T05:46:30;99966.50;;;21.01;100.00
13068;BME280;6600;51.362;6.686;2023-09-18T05:48:56;99969.75;;;21.03;100.00
13068;BME280;6600;51.362;6.686;2023-09-18T05:51:22;99983.84;;;21.05;100.00
13068;BME280;6600;51.362;6.686;2023-09-18T05:53:48;99992.94;;;21.00;100.00
13068;BME280;6600;51.362;6.686;2023-09-18T05:56:13;100003.75;;;21.05;100.00
13068;BME280;6600;51.362;6.686;2023-09-18T05:58:39;99994.25;;;21.03;100.00
13068;BME280;6600;51.362;6.686;2023-09-18T06:01:06;99991.38;;;21.13;100.00
13068;BME280;6600;51.362;6.686;2023-09-18T06:03:31;100000.94;;;21.10;100.00
13068;BME280;6600;51.362;6.686;2023-09-18T06:06:03;99985.41;;;21.11;100.00
13068;BME280;6600;51.362;6.686;2023-09-18T06:08:29;99978.53;;;21.13;100.00
13068;BME280;6600;51.362;6.686;2023-09-18T06:10:59;99992.88;;;21.19;100.00
13068;BME280;6600;51.362;6.686;2023-09-18T06:18:27;99985.09;;;21.26;100.00
13068;BME280;6600;51.362;6.686;2023-09-18T06:20:53;99988.94;;;21.25;100.00
13068;BME280;6600;51.362;6.686;2023-09-18T06:23:18;100006.28;;;21.29;100.00
13068;BME280;6600;51.362;6.686;2023-09-18T06:25:43;99988.31;;;21.28;100.00
13068;BME280;6600;51.362;6.686;2023-09-18T06:28:09;99998.22;;;21.24;100.00
13068;BME280;6600;51.362;6.686;2023-09-18T06:30:34;100001.94;;;21.28;100.00
13068;BME280;6600;51.362;6.686;2023-09-18T06:33:01;99997.63;;;21.27;100.00
13068;BME280;6600;51.362;6.686;2023-09-18T06:35:27;100004.66;;;21.28;100.00
13068;BME280;6600;51.362;6.686;2023-09-18T06:37:53;100009.09;;;21.24;100.00
13068;BME280;6600;51.362;6.686;2023-09-18T06:40:23;100021.53;;;21.30;100.00
13068;BME280;6600;51.362;6.686;2023-09-18T06:42:48;100023.47;;;21.30;100.00
13068;BME280;6600;51.362;6.686;2023-09-18T06:45:14;100012.16;;;21.36;100.00
13068;BME280;6600;51.362;6.686;2023-09-18T06:47:40;100009.09;;;21.38;100.00
13068;BME280;6600;51.362;6.686;2023-09-18T06:50:06;100010.53;;;21.35;100.00
13068;BME280;6600;51.362;6.686;2023-09-18T06:52:31;100013.66;;;21.42;100.00
13068;BME280;6600;51.362;6.686;2023-09-18T06:54:57;100023.13;;;21.45;100.00
13068;BME280;6600;51.362;6.686;2023-09-18T06:57:25;100029.91;;;21.47;100.00
13068;BME280;6600;51.362;6.686;2023-09-18T06:59:51;100031.09;;;21.55;100.00
13068;BME280;6600;51.362;6.686;2023-09-18T07:02:16;100024.66;;;21.64;100.00
13068;BME280;6600;51.362;6.686;2023-09-18T07:04:42;100032.00;;;21.64;100.00
13068;BME280;6600;51.362;6.686;2023-09-18T07:07:14;100039.25;;;21.68;100.00
13068;BME280;6600;51.362;6.686;2023-09-18T07:09:41;100039.78;;;21.71;100.00
13068;BME280;6600;51.362;6.686;2023-09-18T07:12:08;100043.50;;;21.75;100.00
13068;BME280;6600;51.362;6.686;2023-09-18T07:14:36;100028.06;;;21.70;100.00
13068;BME280;6600;51.362;6.686;2023-09-18T07:17:03;100029.25;;;21.78;100.00
13068;BME280;6600;51.362;6.686;2023-09-18T07:19:29;100035.22;;;21.80;100.00
13068;BME280;6600;51.362;6.686;2023-09-18T07:21:54;100045.50;;;21.83;100.00
13068;BME280;6600;51.362;6.686;2023-09-18T07:24:19;100050.47;;;21.81;100.00
13068;BME280;6600;51.362;6.686;2023-09-18T07:26:46;100046.63;;;21.82;100.00
13068;BME280;6600;51.362;6.686;2023-09-18T07:29:16;100054.91;;;21.77;100.00
13068;BME280;6600;51.362;6.686;2023-09-18T07:31:42;100059.13;;;21.83;100.00
13068;BME280;6600;51.362;6.686;2023-09-18T07:34:08;100057.84;;;21.80;100.00
13068;BME280;6600;51.362;6.686;2023-09-18T07:36:33;100064.19;;;21.76;100.00
13068;BME280;6600;51.362;6.686;2023-09-18T07:38:58;100062.88;;;21.87;100.00
13068;BME280;6600;51.362;6.686;2023-09-18T07:41:23;100066.53;;;21.82;100.00
13068;BME280;6600;51.362;6.686;2023-09-18T07:43:50;100060.66;;;21.89;100.00
13068;BME280;6600;51.362;6.686;2023-09-18T07:46:15;100072.69;;;21.88;100.00
13068;BME280;6600;51.362;6.686;2023-09-18T07:48:41;100067.03;;;21.84;99.71
13068;BME280;6600;51.362;6.686;2023-09-18T07:51:06;100068.75;;;21.94;99.54
13068;BME280;6600;51.362;6.686;2023-09-18T07:53:31;100079.19;;;21.92;99.63
13068;BME280;6600;51.362;6.686;2023-09-18T07:55:58;100076.75;;;21.90;99.46
13068;BME280;6600;51.362;6.686;2023-09-18T07:58:24;100075.94;;;21.90;99.48
13068;BME280;6600;51.362;6.686;2023-09-18T08:00:53;100088.84;;;21.98;99.47
13068;BME280;6600;51.362;6.686;2023-09-18T08:03:19;100088.63;;;22.08;99.50
13068;BME280;6600;51.362;6.686;2023-09-18T08:05:44;100099.06;;;22.06;98.72
13068;BME280;6600;51.362;6.686;2023-09-18T08:08:10;100069.66;;;22.03;98.36
13068;BME280;6600;51.362;6.686;2023-09-18T08:10:39;100083.78;;;22.05;98.47
13068;BME280;6600;51.362;6.686;2023-09-18T08:13:05;100082.31;;;22.21;98.43
13068;BME280;6600;51.362;6.686;2023-09-18T08:15:31;100087.41;;;22.14;98.87
13068;BME280;6600;51.362;6.686;2023-09-18T08:17:56;100079.81;;;22.11;97.70
13068;BME280;6600;51.362;6.686;2023-09-18T08:20:25;100091.25;;;22.13;98.23
13068;BME280;6600;51.362;6.686;2023-09-18T08:22:51;100099.72;;;22.25;97.50
13068;BME280;6600;51.362;6.686;2023-09-18T08:25:17;100099.91;;;22.29;97.73
13068;BME280;6600;51.362;6.686;2023-09-18T08:27:42;100096.25;;;22.33;96.42
13068;BME280;6600;51.362;6.686;2023-09-18T08:30:13;100109.16;;;22.41;96.42
13068;BME280;6600;51.362;6.686;2023-09-18T08:32:38;100118.88;;;22.47;95.64
13068;BME280;6600;51.362;6.686;2023-09-18T08:35:05;100126.28;;;22.55;95.26
13068;BME280;6600;51.362;6.686;2023-09-18T08:37:30;100107.06;;;22.60;95.56
13068;BME280;6600;51.362;6.686;2023-09-18T08:39:56;100104.34;;;22.60;95.73
13068;BME280;6600;51.362;6.686;2023-09-18T08:42:22;100109.28;;;22.58;95.98
13068;BME280;6600;51.362;6.686;2023-09-18T08:44:51;100112.66;;;22.55;95.96
13068;BME280;6600;51.362;6.686;2023-09-18T08:47:18;100107.94;;;22.47;96.20
13068;BME280;6600;51.362;6.686;2023-09-18T08:49:46;100112.22;;;22.40;95.14
13068;BME280;6600;51.362;6.686;2023-09-18T08:52:15;100109.09;;;22.33;95.26
13068;BME280;6600;51.362;6.686;2023-09-18T08:54:42;100107.94;;;22.47;95.25
13068;BME280;6600;51.362;6.686;2023-09-18T08:57:08;100114.81;;;22.45;95.57
13068;BME280;6600;51.362;6.686;2023-09-18T08:59:35;100128.22;;;22.55;96.25
13068;BME280;6600;51.362;6.686;2023-09-18T09:02:01;100127.91;;;22.56;94.97
13068;BME280;6600;51.362;6.686;2023-09-18T09:04:27;100132.56;;;22.56;94.50
13068;BME280;6600;51.362;6.686;2023-09-18T09:06:52;100130.41;;;22.44;94.53
13068;BME280;6600;51.362;6.686;2023-09-18T09:09:18;100127.16;;;22.42;94.25
13068;BME280;6600;51.362;6.686;2023-09-18T09:11:50;100114.63;;;22.41;93.27
13068;BME280;6600;51.362;6.686;2023-09-18T09:14:16;100114.38;;;22.51;94.23
13068;BME280;6600;51.362;6.686;2023-09-18T09:16:50;100110.59;;;22.75;93.20
13068;BME280;6600;51.362;6.686;2023-09-18T09:19:29;100096.78;;;22.80;93.17
13068;BME280;6600;51.362;6.686;2023-09-18T09:21:55;100098.78;;;22.88;92.17
13068;BME280;6600;51.362;6.686;2023-09-18T09:24:39;100095.41;;;22.91;92.62
13068;BME280;6600;51.362;6.686;2023-09-18T09:27:05;100102.44;;;23.05;92.94
13068;BME280;6600;51.362;6.686;2023-09-18T09:29:30;100086.84;;;23.06;91.90
13068;BME280;6600;51.362;6.686;2023-09-18T09:32:15;100095.41;;;22.91;91.67
13068;BME280;6600;51.362;6.686;2023-09-18T09:34:42;100100.50;;;23.06;91.81
13068;BME280;6600;51.362;6.686;2023-09-18T09:37:08;100099.44;;;22.93;91.63
13068;BME280;6600;51.362;6.686;2023-09-18T09:39:33;100108.72;;;23.06;91.01
13068;BME280;6600;51.362;6.686;2023-09-18T09:42:02;100121.03;;;23.26;91.15
13068;BME280;6600;51.362;6.686;2023-09-18T09:44:31;100129.69;;;23.19;90.53
13068;BME280;6600;51.362;6.686;2023-09-18T09:46:59;100129.22;;;23.26;89.97
13068;BME280;6600;51.362;6.686;2023-09-18T09:49:24;100128.94;;;23.05;90.53
13068;BME280;6600;51.362;6.686;2023-09-18T09:51:53;100134.41;;;23.05;90.23
13068;BME280;6600;51.362;6.686;2023-09-18T09:54:32;100125.59;;;23.08;91.10
13068;BME280;6600;51.362;6.686;2023-09-18T09:57:02;100128.75;;;23.01;90.92
13068;BME280;6600;51.362;6.686;2023-09-18T09:59:28;100115.31;;;23.13;90.23
13068;BME280;6600;51.362;6.686;2023-09-18T10:01:57;100115.38;;;23.22;91.16
13068;BME280;6600;51.362;6.686;2023-09-18T10:04:25;100112.19;;;23.29;89.85
13068;BME280;6600;51.362;6.686;2023-09-18T10:06:56;100113.84;;;23.38;91.04
13068;BME280;6600;51.362;6.686;2023-09-18T10:09:22;100115.59;;;23.34;90.85
13068;BME280;6600;51.362;6.686;2023-09-18T10:11:51;100120.19;;;23.47;90.60
13068;BME280;6600;51.362;6.686;2023-09-18T10:14:23;100114.09;;;23.50;89.89
13068;BME280;6600;51.362;6.686;2023-09-18T10:16:56;100125.41;;;23.57;89.23
13068;BME280;6600;51.362;6.686;2023-09-18T10:19:42;100120.47;;;23.77;89.18
13068;BME280;6600;51.362;6.686;2023-09-18T10:22:17;100117.47;;;24.04;89.29
13068;BME280;6600;51.362;6.686;2023-09-18T10:24:50;100115.28;;;24.23;87.84
13068;BME280;6600;51.362;6.686;2023-09-18T10:27:19;100104.03;;;24.33;85.97
13068;BME280;6600;51.362;6.686;2023-09-18T10:29:49;100103.22;;;24.33;85.73
13068;BME280;6600;51.362;6.686;2023-09-18T10:32:14;100097.56;;;24.29;85.73
13068;BME280;6600;51.362;6.686;2023-09-18T10:34:41;100098.38;;;24.30;85.09
13068;BME280;6600;51.362;6.686;2023-09-18T10:37:09;100105.00;;;24.37;85.26
13068;BME280;6600;51.362;6.686;2023-09-18T10:39:38;100100.78;;;24.48;84.94
13068;BME280;6600;51.362;6.686;2023-09-18T10:42:07;100109.81;;;24.57;85.60
13068;BME280;6600;51.362;6.686;2023-09-18T10:44:33;100113.84;;;24.60;85.57
13068;BME280;6600;51.362;6.686;2023-09-18T10:47:01;100108.84;;;24.71;84.13
13068;BME280;6600;51.362;6.686;2023-09-18T10:49:28;100116.09;;;24.84;83.30
13068;BME280;6600;51.362;6.686;2023-09-18T10:51:54;100119.16;;;24.74;83.57
13068;BME280;6600;51.362;6.686;2023-09-18T10:54:23;100110.28;;;25.02;85.02
13068;BME280;6600;51.362;6.686;2023-09-18T10:56:51;100107.50;;;25.11;83.65
13068;BME280;6600;51.362;6.686;2023-09-18T10:59:16;100096.63;;;25.32;82.29
13068;BME280;6600;51.362;6.686;2023-09-18T11:01:43;100094.84;;;25.44;82.48
13068;BME280;6600;51.362;6.686;2023-09-18T11:04:20;100100.59;;;25.51;82.63
13068;BME280;6600;51.362;6.686;2023-09-18T11:09:24;100120.13;;;25.50;78.37
13068;BME280;6600;51.362;6.686;2023-09-18T11:11:54;100107.53;;;25.49;78.87
13068;BME280;6600;51.362;6.686;2023-09-18T11:17:36;100106.59;;;25.53;78.25
13068;BME280;6600;51.362;6.686;2023-09-18T11:20:09;100114.16;;;25.56;78.74
13068;BME280;6600;51.362;6.686;2023-09-18T11:22:37;100102.06;;;25.49;78.29
13068;BME280;6600;51.362;6.686;2023-09-18T11:25:40;100109.84;;;25.38;78.07
13068;BME280;6600;51.362;6.686;2023-09-18T11:28:08;100117.38;;;25.58;78.71
13068;BME280;6600;51.362;6.686;2023-09-18T11:30:37;100116.66;;;25.79;79.07
13068;BME280;6600;51.362;6.686;2023-09-18T11:33:05;100120.81;;;25.85;79.18
13068;BME280;6600;51.362;6.686;2023-09-18T11:35:32;100115.50;;;25.80;78.55
13068;BME280;6600;51.362;6.686;2023-09-18T11:38:06;100114.66;;;25.88;76.94
13068;BME280;6600;51.362;6.686;2023-09-18T11:40:36;100101.09;;;25.83;77.58
13068;BME280;6600;51.362;6.686;2023-09-18T11:43:32;100106.22;;;25.93;78.69
13068;BME280;6600;51.362;6.686;2023-09-18T11:46:00;100098.84;;;25.85;78.38
13068;BME280;6600;51.362;6.686;2023-09-18T11:48:29;100107.44;;;26.04;78.50
13068;BME280;6600;51.362;6.686;2023-09-18T11:50:58;100104.91;;;25.99;78.19
13068;BME280;6600;51.362;6.686;2023-09-18T11:53:25;100100.06;;;25.96;79.28
13068;BME280;6600;51.362;6.686;2023-09-18T11:55:51;100097.66;;;25.94;79.67
13068;BME280;6600;51.362;6.686;2023-09-18T11:58:17;100098.34;;;25.83;77.24
13068;BME280;6600;51.362;6.686;2023-09-18T12:00:45;100096.94;;;25.77;78.73
13068;BME280;6600;51.362;6.686;2023-09-18T12:03:17;100094.16;;;25.56;78.93
13068;BME280;6600;51.362;6.686;2023-09-18T12:08:22;100079.75;;;25.59;79.08
13068;BME280;6600;51.362;6.686;2023-09-18T12:10:49;100083.38;;;25.51;78.83
13068;BME280;6600;51.362;6.686;2023-09-18T12:13:15;100085.34;;;25.33;78.33
13068;BME280;6600;51.362;6.686;2023-09-18T12:15:40;100087.50;;;25.19;77.16
13068;BME280;6600;51.362;6.686;2023-09-18T12:18:07;100087.06;;;25.46;77.85
13068;BME280;6600;51.362;6.686;2023-09-18T12:20:33;100082.84;;;25.57;74.57
13068;BME280;6600;51.362;6.686;2023-09-18T12:22:59;100079.91;;;25.62;74.82
13068;BME280;6600;51.362;6.686;2023-09-18T12:25:25;100079.94;;;25.83;74.41
13068;BME280;6600;51.362;6.686;2023-09-18T12:27:54;100082.97;;;25.90;73.68
13068;BME280;6600;51.362;6.686;2023-09-18T12:30:20;100082.09;;;25.78;74.26
13068;BME280;6600;51.362;6.686;2023-09-18T12:32:48;100078.22;;;25.79;73.42
13068;BME280;6600;51.362;6.686;2023-09-18T12:35:13;100075.81;;;25.77;73.35
13068;BME280;6600;51.362;6.686;2023-09-18T12:37:40;100080.09;;;25.87;72.75
13068;BME280;6600;51.362;6.686;2023-09-18T12:40:07;100078.09;;;25.75;73.54
13068;BME280;6600;51.362;6.686;2023-09-18T12:42:39;100077.56;;;25.82;73.29
13068;BME280;6600;51.362;6.686;2023-09-18T12:45:07;100074.91;;;25.65;75.10
13068;BME280;6600;51.362;6.686;2023-09-18T12:47:33;100064.13;;;25.59;74.75
13068;BME280;6600;51.362;6.686;2023-09-18T12:50:03;100067.19;;;25.49;74.45
13068;BME280;6600;51.362;6.686;2023-09-18T12:52:30;100064.31;;;25.54;74.32
13068;BME280;6600;51.362;6.686;2023-09-18T12:54:57;100060.00;;;25.74;75.77
13068;BME280;6600;51.362;6.686;2023-09-18T12:57:24;100058.25;;;25.70;72.84
13068;BME280;6600;51.362;6.686;2023-09-18T12:59:50;100067.25;;;25.79;73.49
13068;BME280;6600;51.362;6.686;2023-09-18T13:02:18;100058.25;;;25.70;71.38
13068;BME280;6600;51.362;6.686;2023-09-18T13:04:51;100055.72;;;25.65;72.23
13068;BME280;6600;51.362;6.686;2023-09-18T13:07:17;100068.41;;;25.69;72.29
13068;BME280;6600;51.362;6.686;2023-09-18T13:09:58;100061.66;;;25.67;72.76
13068;BME280;6600;51.362;6.686;2023-09-18T13:12:25;100050.97;;;25.74;72.41